createdAt,value
2019-04-28T08:10:34.522Z,29.20
2019-04-28T08:13:14.764Z,29.37
2019-04-28T08:15:55.448Z,31.07
2019-04-28T08:18:31.706Z,29.03
2019-04-28T08:21:07.610Z,31.03
2019-04-28T08:23:47.252Z,29.60
2019-04-28T08:26:18.818Z,29.03
2019-04-28T08:28:53.542Z,29.70
2019-04-28T08:31:36.342Z,29.27
2019-04-28T08:34:11.689Z,29.10
2019-04-28T08:36:50.419Z,28.70
2019-04-28T08:39:30.617Z,28.97
2019-04-28T08:42:13.591Z,28.50
2019-04-28T08:44:54.786Z,28.97
2019-04-28T08:47:37.120Z,29.10
2019-04-28T08:50:18.267Z,30.17
2019-04-28T08:53:00.191Z,28.77
2019-04-28T08:55:43.154Z,29.13
2019-04-28T08:58:19.406Z,28.63
2019-04-28T09:00:54.350Z,28.93
2019-04-28T09:03:32.687Z,29.20
2019-04-28T09:06:07.655Z,28.93
2019-04-28T09:08:42.414Z,28.93
2019-04-28T09:11:17.269Z,29.17
2019-04-28T09:13:52.066Z,29.37
2019-04-28T09:16:26.866Z,28.67
2019-04-28T09:19:02.572Z,29.27
2019-04-28T09:21:42.436Z,30.20
2019-04-28T09:24:46.079Z,28.90
2019-04-28T09:27:20.800Z,28.60
2019-04-28T09:29:55.531Z,28.97
2019-04-28T09:32:32.795Z,29.50
2019-04-28T09:35:07.879Z,31.37
2019-04-28T09:37:42.746Z,30.00
2019-04-28T09:40:17.691Z,29.60
2019-04-28T09:43:14.791Z,29.83
2019-04-28T09:45:53.146Z,29.27
2019-04-28T09:48:30.534Z,29.80
2019-04-28T09:51:05.489Z,29.67
2019-04-28T09:53:40.262Z,29.90
2019-04-28T12:25:59.904Z,30.33
2019-04-28T12:28:34.638Z,29.47
2019-04-28T12:31:09.373Z,30.40
2019-04-28T12:33:44.194Z,29.87
2019-04-28T12:36:18.990Z,29.90
2019-04-28T12:38:53.731Z,29.63
2019-04-28T12:41:28.446Z,29.17
2019-04-28T12:44:03.335Z,29.43
2019-04-28T12:46:38.146Z,29.23
2019-04-28T12:49:19.633Z,29.37
2019-04-28T12:51:56.568Z,30.43
2019-04-28T12:54:33.044Z,29.70
2019-04-28T12:57:07.966Z,29.57
2019-04-28T12:59:53.100Z,29.57
2019-04-28T13:03:01.659Z,30.20
2019-04-28T13:05:38.414Z,29.27
2019-04-28T13:08:13.183Z,29.27
2019-04-28T13:10:47.944Z,29.43
2019-04-28T13:13:22.678Z,29.57
2019-04-28T13:16:00.429Z,29.83
2019-04-28T13:18:36.019Z,29.50
2019-04-28T13:21:10.843Z,29.77
2019-04-28T13:23:45.666Z,29.90
2019-04-28T13:26:20.394Z,30.10
2019-04-28T13:28:55.122Z,29.90
2019-04-28T13:31:32.426Z,30.03
2019-04-28T13:34:08.854Z,29.47
2019-04-28T13:36:43.655Z,29.53
2019-04-28T13:39:25.391Z,30.17
2019-04-28T13:42:00.184Z,29.27
2019-04-28T13:44:52.976Z,29.60
2019-04-28T13:47:27.848Z,29.90
2019-04-28T13:50:11.990Z,30.00
2019-04-28T13:52:46.750Z,29.47
2019-04-28T13:55:40.726Z,30.43
2019-04-28T14:05:14.919Z,29.77
2019-04-28T14:07:49.643Z,30.20
2019-04-28T14:10:24.516Z,29.43
2019-04-28T14:12:59.313Z,29.33
2019-04-28T14:15:34.037Z,29.80
2019-04-28T14:18:08.832Z,29.50
2019-04-28T14:20:43.752Z,30.90
2019-04-28T14:23:18.554Z,29.93
2019-04-28T14:25:53.347Z,30.50
2019-04-28T14:28:28.190Z,30.10
2019-04-28T14:31:03.006Z,30.17
2019-04-28T14:33:38.003Z,30.10
2019-04-28T14:36:12.780Z,30.07
2019-04-28T14:38:47.667Z,30.00
2019-04-28T14:41:22.467Z,29.40
2019-04-28T14:44:07.324Z,30.17
2019-04-28T14:46:52.212Z,30.40
2019-04-28T14:52:31.410Z,31.13
2019-04-28T14:55:29.341Z,32.70
2019-04-28T14:58:18.675Z,31.17
2019-04-28T15:01:02.579Z,32.43
2019-04-28T15:04:07.321Z,31.27
2019-04-28T15:06:55.729Z,30.27
2019-04-28T15:09:49.497Z,30.00
2019-04-28T15:12:28.441Z,31.93
2019-04-28T15:15:48.037Z,30.70
2019-04-28T15:18:42.567Z,31.73
2019-04-28T15:21:17.479Z,30.40
2019-04-28T15:23:52.374Z,30.47
2019-04-28T15:26:27.299Z,30.13
2019-04-28T15:29:02.013Z,29.90
2019-04-28T15:32:02.670Z,30.77
2019-04-28T15:34:38.474Z,30.53
2019-04-28T15:37:15.912Z,30.07
2019-04-28T15:39:53.183Z,30.03
2019-04-28T15:42:29.539Z,29.93
2019-04-28T15:45:04.867Z,29.90
2019-04-28T15:47:45.471Z,29.80
2019-04-28T15:50:25.188Z,31.20
2019-04-28T15:56:26.960Z,30.30
2019-04-28T15:59:27.200Z,30.17
2019-04-28T16:02:03.571Z,29.93
2019-04-28T16:04:38.539Z,29.40
2019-04-28T16:07:24.329Z,29.57
2019-04-28T16:09:49.854Z,29.57
2019-04-28T16:12:24.591Z,30.13
2019-04-28T16:14:59.330Z,29.33
2019-04-28T16:17:34.154Z,30.37
2019-04-28T16:20:08.964Z,30.30
2019-04-28T16:22:43.690Z,29.93
2019-04-28T16:25:18.552Z,29.77
2019-04-28T16:27:53.389Z,30.03
2019-04-28T16:30:28.195Z,29.60
2019-04-28T16:33:02.987Z,29.97
2019-04-28T16:35:43.625Z,29.43
2019-04-28T16:38:19.314Z,29.80
2019-04-28T16:40:54.115Z,29.53
2019-04-28T16:43:28.918Z,29.77
2019-04-28T16:46:03.885Z,29.70
2019-04-28T16:48:38.782Z,29.80
2019-04-28T16:51:14.711Z,29.83
2019-04-28T16:53:50.602Z,29.93
2019-04-28T16:56:47.581Z,29.87
2019-04-28T16:59:43.495Z,30.33
2019-04-28T17:02:30.260Z,30.83
2019-04-28T17:05:06.002Z,29.53
2019-04-28T17:07:52.099Z,29.77
2019-04-28T17:10:17.402Z,30.13
2019-04-28T17:12:52.360Z,29.83
2019-04-28T17:15:30.153Z,29.83
2019-04-28T17:18:04.679Z,30.07
2019-04-28T17:20:39.552Z,30.20
2019-04-28T17:23:14.276Z,30.03
2019-04-28T17:25:49.048Z,30.03
2019-04-28T17:28:23.836Z,30.47
2019-04-28T17:30:58.555Z,29.63
2019-04-28T17:33:33.354Z,30.20
2019-04-28T17:36:08.190Z,29.80
2019-04-28T17:38:43.970Z,29.63
2019-04-28T17:41:18.787Z,29.67
2019-04-28T17:43:55.581Z,29.27
2019-04-28T17:46:30.374Z,29.40
2019-04-28T17:49:05.231Z,29.57
2019-04-28T17:51:39.971Z,29.50
2019-04-28T17:54:14.787Z,30.17
2019-04-28T17:56:49.527Z,30.07
2019-04-28T17:59:24.736Z,31.70
2019-04-28T18:02:21.871Z,32.40
2019-04-28T18:05:18.879Z,30.07
2019-04-28T18:07:58.583Z,30.17
2019-04-28T18:10:34.415Z,29.63
2019-04-28T18:13:09.616Z,30.03
2019-04-28T18:16:04.548Z,31.10
2019-04-28T18:18:42.938Z,31.73
2019-04-28T18:21:17.731Z,30.40
2019-04-28T18:23:52.719Z,29.87
2019-04-28T18:26:27.669Z,32.37
2019-04-28T18:29:04.564Z,32.73
2019-04-28T18:31:52.013Z,31.77
2019-04-28T18:34:55.372Z,32.67
2019-04-28T18:37:49.625Z,30.30
2019-04-28T18:40:42.554Z,30.70
2019-04-28T18:43:44.010Z,30.07
2019-04-28T18:46:25.110Z,31.17
2019-04-28T18:49:00.425Z,32.80
2019-04-28T18:51:35.946Z,31.40
2019-04-28T18:54:14.075Z,32.23
2019-04-28T18:57:08.171Z,33.00
2019-04-28T18:59:49.544Z,31.60
2019-04-28T19:02:43.645Z,31.37
2019-04-28T19:05:39.946Z,30.47
2019-04-28T19:08:22.955Z,31.50
2019-04-28T19:11:08.159Z,30.17
2019-04-28T19:13:48.183Z,30.43
2019-04-28T19:16:50.601Z,30.63
2019-04-28T19:19:26.913Z,31.13
2019-04-28T19:22:01.914Z,32.40
2019-04-28T19:24:38.268Z,31.23
2019-04-28T19:27:13.103Z,31.73
2019-04-28T19:29:48.228Z,32.63
2019-04-28T19:32:23.215Z,33.67
2019-04-28T19:34:58.251Z,34.27
2019-04-28T19:37:36.600Z,35.70
2019-04-28T19:40:11.898Z,33.23
2019-04-28T19:42:47.015Z,32.47
2019-04-28T19:46:00.220Z,32.73
2019-04-28T19:48:35.516Z,33.10
2019-04-28T19:54:05.069Z,33.33
2019-04-28T19:56:50.866Z,32.53
2019-04-28T19:59:32.987Z,34.43
2019-04-28T20:02:29.446Z,32.13
2019-04-28T20:05:04.790Z,31.53
2019-04-28T20:07:41.889Z,31.30
2019-04-28T20:10:17.043Z,31.73
2019-04-28T20:12:52.109Z,31.63
2019-04-28T20:15:28.241Z,31.10
2019-04-28T20:18:03.235Z,30.23
2019-04-28T20:20:38.443Z,30.43
2019-04-28T20:23:13.308Z,30.10
2019-04-28T20:25:48.136Z,30.47
2019-04-28T20:28:22.933Z,29.87
2019-04-28T20:30:57.753Z,30.33
2019-04-28T20:33:32.479Z,29.73
2019-04-28T20:36:13.739Z,29.37
2019-04-28T20:38:50.594Z,29.50
2019-04-28T20:41:29.320Z,29.50
2019-04-28T20:44:04.188Z,29.80
2019-04-28T20:46:38.935Z,29.97
2019-04-28T20:49:13.779Z,30.03
2019-04-28T20:51:48.510Z,29.90
2019-04-28T20:54:23.226Z,30.17
2019-04-28T20:56:57.977Z,29.87
2019-04-28T20:59:32.693Z,29.73
2019-04-28T21:02:07.524Z,29.83
2019-04-28T21:04:42.346Z,29.43
2019-04-28T21:07:17.090Z,29.67
2019-04-28T21:09:51.806Z,29.93
2019-04-28T21:12:26.634Z,29.77
2019-04-28T21:15:01.548Z,30.67
2019-04-28T21:17:37.178Z,29.30
2019-04-28T21:20:13.124Z,30.43
2019-04-28T21:22:47.887Z,29.93
2019-04-28T21:25:22.705Z,29.87
2019-04-28T21:27:57.431Z,29.63
2019-04-28T21:30:32.179Z,29.47
2019-04-28T21:33:06.971Z,30.00
2019-04-28T21:35:41.703Z,29.93
2019-04-28T21:38:16.423Z,29.93
2019-04-28T21:40:51.214Z,29.93
2019-04-28T21:43:54.106Z,29.87
2019-04-28T21:46:46.163Z,30.33
2019-04-28T21:49:31.542Z,30.67
2019-04-28T21:52:06.412Z,29.80
2019-04-28T21:54:41.206Z,30.27
2019-04-28T21:57:16.910Z,30.43
2019-04-28T21:59:51.635Z,29.87
2019-04-28T22:02:27.475Z,29.97
2019-04-28T22:05:02.215Z,29.77
2019-04-28T22:07:37.109Z,29.37
2019-04-28T22:10:11.917Z,29.77
2019-04-28T22:12:46.675Z,30.60
2019-04-28T22:15:21.418Z,29.60
2019-04-28T22:17:56.155Z,29.67
2019-04-28T22:20:30.890Z,30.10
2019-04-28T22:23:18.315Z,29.77
2019-04-28T22:25:44.619Z,29.87
2019-04-28T22:28:19.370Z,30.40
2019-04-28T22:30:54.083Z,30.60
2019-04-28T22:33:28.814Z,29.93
2019-04-28T22:36:04.155Z,29.43
2019-04-28T22:38:38.894Z,29.33
2019-04-28T22:41:13.607Z,29.47
2019-04-28T22:43:48.355Z,29.17
2019-04-28T22:46:24.172Z,29.23
2019-04-28T22:49:00.671Z,29.73
2019-04-28T22:51:35.747Z,29.73
2019-04-28T22:54:16.411Z,29.40
2019-04-28T22:56:57.135Z,29.37
2019-04-28T22:59:35.967Z,29.90
2019-04-28T23:02:16.041Z,29.80
2019-04-28T23:05:07.942Z,29.10
2019-04-28T23:07:42.901Z,29.30
2019-04-28T23:10:17.872Z,29.37
2019-04-28T23:12:52.690Z,29.37
2019-04-28T23:15:27.641Z,29.10
2019-04-28T23:18:02.380Z,29.57
2019-04-28T23:20:39.231Z,29.30
2019-04-28T23:23:15.035Z,29.60
2019-04-28T23:25:49.750Z,29.83
2019-04-28T23:28:24.496Z,29.90
2019-04-28T23:30:59.282Z,29.73
2019-04-28T23:33:34.019Z,30.03
2019-04-28T23:36:08.743Z,30.00
2019-04-28T23:38:43.542Z,29.53
2019-04-28T23:41:25.631Z,29.77
2019-04-28T23:44:00.430Z,29.33
2019-04-28T23:46:52.916Z,29.33
2019-04-28T23:49:29.099Z,30.33
2019-04-28T23:52:21.748Z,30.07
2019-04-28T23:54:58.641Z,30.40
2019-04-28T23:57:33.523Z,29.60
